createdAt,value
2017-10-24T00:02:10.064Z,10.20
2017-10-24T00:04:38.328Z,10.20
2017-10-24T00:07:05.883Z,10.20
2017-10-24T00:09:33.445Z,10.20
2017-10-24T00:12:00.907Z,10.30
2017-10-24T00:14:28.377Z,10.20
2017-10-24T00:16:56.638Z,10.20
2017-10-24T00:19:24.105Z,10.20
2017-10-24T00:21:52.341Z,10.30
2017-10-24T00:24:19.829Z,10.20
2017-10-24T00:26:48.074Z,10.30
2017-10-24T00:29:15.551Z,10.30
2017-10-24T00:31:43.113Z,10.40
2017-10-24T00:34:10.578Z,10.30
2017-10-24T00:36:38.849Z,10.30
2017-10-24T00:39:07.121Z,10.30
2017-10-24T00:41:34.678Z,10.30
2017-10-24T00:44:02.238Z,10.30
2017-10-24T00:46:29.702Z,10.40
2017-10-24T00:48:57.255Z,10.40
2017-10-24T00:51:24.771Z,10.40
2017-10-24T00:53:52.238Z,10.40
2017-10-24T00:56:19.704Z,10.30
2017-10-24T00:58:47.174Z,10.40
2017-10-24T01:01:14.638Z,10.30
2017-10-24T01:03:42.193Z,10.40
2017-10-24T01:06:09.706Z,10.40
2017-10-24T01:08:37.181Z,10.40
2017-10-24T01:11:04.666Z,10.50
2017-10-24T01:13:32.130Z,10.50
2017-10-24T01:15:59.602Z,10.50
2017-10-24T01:18:27.911Z,10.40
2017-10-24T01:20:55.373Z,10.30
2017-10-24T01:23:22.875Z,10.30
2017-10-24T01:25:50.346Z,10.20
2017-10-24T01:28:18.585Z,10.30
2017-10-24T01:30:46.062Z,10.20
2017-10-24T01:33:13.538Z,10.30
2017-10-24T01:35:41.777Z,10.40
2017-10-24T01:38:09.245Z,10.30
2017-10-24T01:40:36.719Z,10.40
2017-10-24T01:43:04.959Z,10.40
2017-10-24T01:45:32.426Z,10.30
2017-10-24T01:47:59.892Z,10.40
2017-10-24T01:50:27.361Z,10.40
2017-10-24T01:52:55.635Z,10.50
2017-10-24T01:55:23.898Z,10.50
2017-10-24T01:57:52.902Z,10.40
2017-10-24T02:00:20.386Z,10.40
2017-10-24T02:02:47.924Z,10.50
2017-10-24T02:05:16.189Z,10.50
2017-10-24T02:07:44.439Z,10.40
2017-10-24T02:10:11.912Z,10.40
2017-10-24T02:12:39.477Z,10.50
2017-10-24T02:15:06.943Z,10.50
2017-10-24T02:17:35.213Z,10.50
2017-10-24T02:20:02.691Z,10.40
2017-10-24T02:22:30.995Z,10.30
2017-10-24T02:24:58.473Z,10.20
2017-10-24T02:27:25.948Z,10.20
2017-10-24T02:29:53.415Z,10.20
2017-10-24T02:32:20.888Z,10.20
2017-10-24T02:34:49.166Z,10.20
2017-10-24T02:37:17.425Z,10.20
2017-10-24T02:39:45.665Z,10.30
2017-10-24T02:42:13.132Z,10.20
2017-10-24T02:44:40.666Z,10.30
2017-10-24T02:47:08.136Z,10.30
2017-10-24T02:49:35.627Z,10.30
2017-10-24T02:52:03.185Z,10.20
2017-10-24T02:54:30.660Z,10.30
2017-10-24T02:56:58.907Z,10.30
2017-10-24T02:59:26.365Z,10.30
2017-10-24T03:01:53.836Z,10.30
2017-10-24T03:04:21.303Z,10.40
2017-10-24T03:06:49.568Z,10.50
2017-10-24T03:09:17.028Z,10.40
2017-10-24T03:11:45.270Z,10.50
2017-10-24T03:14:12.751Z,10.50
2017-10-24T03:16:40.305Z,10.60
2017-10-24T03:19:07.789Z,10.60
2017-10-24T03:21:36.026Z,10.60
2017-10-24T03:24:03.493Z,10.60
2017-10-24T03:26:30.972Z,10.70
2017-10-24T03:28:59.219Z,10.60
2017-10-24T03:31:26.786Z,10.60
2017-10-24T03:33:54.350Z,10.70
2017-10-24T03:36:21.924Z,10.70
2017-10-24T03:38:50.150Z,10.70
2017-10-24T03:41:17.622Z,10.60
2017-10-24T03:43:45.144Z,10.70
2017-10-24T03:46:12.703Z,10.70
2017-10-24T03:48:40.174Z,10.70
2017-10-24T03:51:07.650Z,10.70
2017-10-24T03:53:35.116Z,10.80
2017-10-24T03:56:03.398Z,10.80
2017-10-24T03:58:30.948Z,10.80
2017-10-24T04:00:58.512Z,10.80
2017-10-24T04:03:26.023Z,10.80
2017-10-24T04:05:53.715Z,10.90
2017-10-24T04:08:21.192Z,10.90
2017-10-24T04:10:48.749Z,10.90
2017-10-24T04:13:16.225Z,10.80
2017-10-24T04:15:44.478Z,10.90
2017-10-24T04:18:11.950Z,10.80
2017-10-24T04:20:40.191Z,10.90
2017-10-24T04:23:07.702Z,10.80
2017-10-24T04:25:35.592Z,10.90
2017-10-24T04:28:03.903Z,10.90
2017-10-24T04:30:31.373Z,10.80
2017-10-24T04:32:59.027Z,10.90
2017-10-24T04:35:26.646Z,11.00
2017-10-24T04:37:54.244Z,11.00
2017-10-24T04:40:21.810Z,10.90
2017-10-24T04:42:50.049Z,10.90
2017-10-24T04:45:17.525Z,10.80
2017-10-24T04:47:45.102Z,10.90
2017-10-24T04:50:12.576Z,10.90
2017-10-24T04:52:40.829Z,10.90
2017-10-24T04:55:08.321Z,10.80
2017-10-24T04:57:36.554Z,10.90
2017-10-24T05:00:04.042Z,10.90
2017-10-24T05:02:32.282Z,11.00
2017-10-24T05:04:59.884Z,10.90
2017-10-24T05:07:28.117Z,11.00
2017-10-24T05:09:55.700Z,10.90
2017-10-24T05:12:23.254Z,11.00
2017-10-24T05:14:51.533Z,11.00
2017-10-24T05:17:19.777Z,11.00
2017-10-24T05:19:47.259Z,11.00
2017-10-24T05:22:14.816Z,11.00
2017-10-24T05:24:42.326Z,11.00
2017-10-24T05:27:09.818Z,11.00
2017-10-24T05:29:37.394Z,11.00
2017-10-24T05:32:04.877Z,11.00
2017-10-24T05:34:32.360Z,11.00
2017-10-24T05:36:59.841Z,11.10
2017-10-24T05:39:27.321Z,11.10
2017-10-24T05:41:54.808Z,11.10
2017-10-24T05:44:22.285Z,11.10
2017-10-24T05:46:49.761Z,11.10
2017-10-24T05:49:17.247Z,11.10
2017-10-24T05:51:44.859Z,11.10
2017-10-24T05:54:12.358Z,11.20
2017-10-24T05:56:39.916Z,11.20
2017-10-24T05:59:07.383Z,11.10
2017-10-24T06:01:34.866Z,11.00
2017-10-24T06:04:03.108Z,11.10
2017-10-24T06:06:30.584Z,11.10
2017-10-24T06:08:58.836Z,11.20
2017-10-24T06:11:26.318Z,11.20
2017-10-24T06:13:54.632Z,11.20
2017-10-24T06:16:22.134Z,11.10
2017-10-24T06:18:50.381Z,11.20
2017-10-24T06:21:17.965Z,11.10
2017-10-24T06:23:46.208Z,11.20
2017-10-24T06:26:13.673Z,11.20
2017-10-24T06:28:41.270Z,11.30
2017-10-24T06:31:09.553Z,11.30
2017-10-24T06:33:37.789Z,11.30
2017-10-24T06:36:05.261Z,11.20
2017-10-24T06:38:32.739Z,11.30
2017-10-24T06:41:00.991Z,11.40
2017-10-24T06:43:28.480Z,11.40
2017-10-24T06:45:56.717Z,11.50
2017-10-24T06:48:24.325Z,11.40
2017-10-24T06:50:51.806Z,11.50
2017-10-24T06:53:19.293Z,11.50
2017-10-24T06:55:46.781Z,11.50
2017-10-24T06:58:14.279Z,11.60
2017-10-24T07:00:41.746Z,11.60
2017-10-24T07:03:09.213Z,11.60
2017-10-24T07:05:36.704Z,11.70
2017-10-24T07:08:04.943Z,11.70
2017-10-24T07:10:32.412Z,11.70
2017-10-24T07:12:59.885Z,11.80
2017-10-24T07:15:27.436Z,11.80
2017-10-24T07:17:54.912Z,11.90
2017-10-24T07:20:23.150Z,11.90
2017-10-24T07:22:50.782Z,11.90
2017-10-24T07:25:18.259Z,12.00
2017-10-24T07:27:45.725Z,12.00
2017-10-24T07:30:13.205Z,12.10
2017-10-24T07:32:41.492Z,11.80
2017-10-24T07:35:09.853Z,11.80
2017-10-24T07:37:37.330Z,11.70
2017-10-24T07:40:05.685Z,11.90
2017-10-24T07:42:33.249Z,11.80
2017-10-24T07:45:01.498Z,11.90
2017-10-24T07:47:29.079Z,11.80
2017-10-24T07:49:56.566Z,11.90
2017-10-24T07:52:24.814Z,11.90
2017-10-24T07:54:53.772Z,11.90
2017-10-24T07:57:21.273Z,11.80
2017-10-24T07:59:49.541Z,11.90
2017-10-24T08:02:17.808Z,12.00
2017-10-24T08:04:45.373Z,11.90
2017-10-24T08:07:13.625Z,12.10
2017-10-24T08:09:41.117Z,12.10
2017-10-24T08:12:09.482Z,12.20
2017-10-24T08:14:37.728Z,12.30
2017-10-24T08:17:05.214Z,12.30
2017-10-24T08:19:32.701Z,12.40
2017-10-24T08:22:00.232Z,12.40
2017-10-24T08:24:28.490Z,12.50
2017-10-24T08:26:55.966Z,12.40
2017-10-24T08:29:24.222Z,12.60
2017-10-24T08:31:51.704Z,12.60
2017-10-24T08:34:19.185Z,12.70
2017-10-24T08:36:46.684Z,12.80
2017-10-24T08:39:14.232Z,12.80
2017-10-24T08:41:41.779Z,12.90
2017-10-24T08:44:09.247Z,12.90
2017-10-24T08:46:36.725Z,13.00
2017-10-24T08:49:04.227Z,13.10
2017-10-24T08:51:32.462Z,13.20
2017-10-24T08:53:59.934Z,13.20
2017-10-24T08:56:28.314Z,13.30
2017-10-24T08:58:56.555Z,13.40
2017-10-24T09:01:26.842Z,13.40
2017-10-24T09:03:54.326Z,13.30
2017-10-24T09:06:32.261Z,13.30
2017-10-24T09:09:05.664Z,13.30
2017-10-24T09:14:34.557Z,13.60
2017-10-24T09:20:00.126Z,13.40
2017-10-24T09:22:28.366Z,13.50
2017-10-24T09:24:56.652Z,13.70
2017-10-24T09:27:25.674Z,13.90
2017-10-24T09:29:53.403Z,13.90
2017-10-24T09:32:21.654Z,14.00
2017-10-24T09:34:49.142Z,13.90
2017-10-24T09:37:16.613Z,14.00
2017-10-24T09:39:44.849Z,14.30
2017-10-24T09:42:12.334Z,14.30
2017-10-24T09:44:39.809Z,14.20
2017-10-24T09:47:08.051Z,13.70
2017-10-24T09:49:35.550Z,13.70
2017-10-24T09:52:03.014Z,13.70
2017-10-24T09:54:45.387Z,13.70
2017-10-24T09:57:12.850Z,13.70
2017-10-24T09:59:41.098Z,13.70
2017-10-24T10:02:10.393Z,13.70
2017-10-24T10:04:37.858Z,13.60
2017-10-24T10:07:05.337Z,13.50
2017-10-24T10:09:33.604Z,13.50
2017-10-24T10:12:02.081Z,13.50
2017-10-24T10:14:29.555Z,13.50
2017-10-24T10:16:57.798Z,13.40
2017-10-24T10:19:25.376Z,13.40
2017-10-24T10:21:53.856Z,13.40
2017-10-24T10:24:33.499Z,13.30
2017-10-24T10:27:01.749Z,13.30
2017-10-24T10:29:29.228Z,13.20
2017-10-24T10:31:56.710Z,13.30
2017-10-24T10:34:24.209Z,13.30
2017-10-24T10:36:51.905Z,13.40
2017-10-24T10:39:20.524Z,13.40
2017-10-24T10:41:48.015Z,13.50
2017-10-24T10:44:15.491Z,13.60
2017-10-24T10:46:42.990Z,13.60
2017-10-24T10:49:11.222Z,13.50
2017-10-24T10:51:38.701Z,13.50
2017-10-24T10:54:06.962Z,13.50
2017-10-24T10:56:34.425Z,13.50
2017-10-24T10:59:01.899Z,13.50
2017-10-24T11:01:30.157Z,13.50
2017-10-24T11:03:57.706Z,13.50
2017-10-24T11:06:25.169Z,13.50
2017-10-24T11:08:52.649Z,13.60
2017-10-24T11:11:20.881Z,13.90
2017-10-24T11:13:48.338Z,13.90
2017-10-24T11:16:15.798Z,14.20
2017-10-24T11:18:43.262Z,14.30
2017-10-24T11:21:10.822Z,14.50
2017-10-24T11:23:38.302Z,14.60
2017-10-24T11:26:06.554Z,14.60
2017-10-24T11:28:34.032Z,14.60
2017-10-24T11:31:02.276Z,14.50
2017-10-24T11:33:29.801Z,14.50
2017-10-24T11:35:57.273Z,14.40
2017-10-24T11:38:24.741Z,14.30
2017-10-24T11:40:52.223Z,14.10
2017-10-24T11:43:19.697Z,14.10
2017-10-24T11:45:47.934Z,14.10
2017-10-24T11:48:15.519Z,14.00
2017-10-24T11:50:43.029Z,14.00
2017-10-24T11:53:10.504Z,14.00
2017-10-24T11:55:37.993Z,14.00
2017-10-24T11:58:05.469Z,14.00
2017-10-24T12:00:33.726Z,16.60
2017-10-24T12:03:01.965Z,17.20
2017-10-24T12:05:29.435Z,17.10
2017-10-24T12:07:56.923Z,17.20
2017-10-24T12:10:25.170Z,16.90
2017-10-24T12:12:52.645Z,16.80
2017-10-24T12:15:20.194Z,16.30
2017-10-24T12:17:47.690Z,15.70
2017-10-24T12:20:15.209Z,15.20
2017-10-24T12:22:42.762Z,15.10
2017-10-24T12:25:10.324Z,14.90
2017-10-24T12:27:37.893Z,14.90
2017-10-24T12:30:05.459Z,15.10
2017-10-24T12:32:33.773Z,15.80
2017-10-24T12:35:01.233Z,15.70
2017-10-24T12:37:28.789Z,16.00
2017-10-24T12:39:56.265Z,16.00
2017-10-24T12:42:27.310Z,15.90
2017-10-24T12:44:58.222Z,15.80
2017-10-24T12:47:25.697Z,15.70
2017-10-24T12:49:59.485Z,15.50
2017-10-24T12:52:27.046Z,15.40
2017-10-24T12:54:54.518Z,15.40
2017-10-24T12:57:31.873Z,15.40
2017-10-24T13:00:01.790Z,15.40
2017-10-24T13:02:29.266Z,15.30
2017-10-24T13:04:56.750Z,15.20
2017-10-24T13:07:24.217Z,15.20
2017-10-24T13:09:51.698Z,15.30
2017-10-24T13:12:19.938Z,15.40
2017-10-24T13:14:47.434Z,15.40
2017-10-24T13:17:15.670Z,15.70
2017-10-24T13:19:43.141Z,15.70
2017-10-24T13:22:10.629Z,15.50
2017-10-24T13:24:38.899Z,15.50
2017-10-24T13:27:06.370Z,15.40
2017-10-24T13:29:33.881Z,15.50
2017-10-24T13:32:01.342Z,15.70
2017-10-24T13:34:28.914Z,15.70
2017-10-24T13:36:56.389Z,15.80
2017-10-24T13:39:23.997Z,15.70
2017-10-24T13:41:51.465Z,15.70
2017-10-24T13:44:19.034Z,15.70
2017-10-24T13:46:47.273Z,15.70
2017-10-24T13:49:14.746Z,15.60
2017-10-24T13:51:42.247Z,15.80
2017-10-24T13:54:10.516Z,15.70
2017-10-24T13:56:38.792Z,15.40
2017-10-24T13:59:07.062Z,15.40
2017-10-24T14:01:34.564Z,15.30
2017-10-24T14:04:02.030Z,15.60
2017-10-24T14:06:35.160Z,15.60
2017-10-24T14:09:09.689Z,15.60
2017-10-24T14:11:38.062Z,15.80
2017-10-24T14:14:05.621Z,15.70
2017-10-24T14:16:33.871Z,15.60
2017-10-24T14:19:01.781Z,15.60
2017-10-24T14:21:29.254Z,15.50
2017-10-24T14:23:56.730Z,15.50
2017-10-24T14:26:24.195Z,15.60
2017-10-24T14:28:51.697Z,15.70
2017-10-24T14:31:19.969Z,15.60
2017-10-24T14:33:48.241Z,15.50
2017-10-24T14:36:15.714Z,15.50
2017-10-24T14:38:43.972Z,15.40
2017-10-24T14:41:11.480Z,15.40
2017-10-24T14:43:38.988Z,15.40
2017-10-24T14:46:06.448Z,15.40
2017-10-24T14:48:34.681Z,15.40
2017-10-24T14:51:02.180Z,15.40
2017-10-24T14:53:29.655Z,15.40
2017-10-24T14:55:57.908Z,15.40
2017-10-24T14:58:25.477Z,15.30
2017-10-24T15:00:53.727Z,15.40
2017-10-24T15:03:21.301Z,15.30
2017-10-24T15:05:48.860Z,15.40
2017-10-24T15:08:16.335Z,15.40
2017-10-24T15:10:44.577Z,15.30
2017-10-24T15:13:12.356Z,15.20
2017-10-24T15:15:40.608Z,15.20
2017-10-24T15:18:08.078Z,15.10
2017-10-24T15:20:35.564Z,15.10
2017-10-24T15:23:03.830Z,15.00
2017-10-24T15:25:32.081Z,15.00
2017-10-24T15:27:59.568Z,14.90
2017-10-24T15:30:27.826Z,15.00
2017-10-24T15:32:55.301Z,14.90
2017-10-24T15:35:23.549Z,15.00
2017-10-24T15:37:51.029Z,14.90
2017-10-24T15:40:19.266Z,14.90
2017-10-24T15:42:46.853Z,14.90
2017-10-24T15:45:15.181Z,14.80
2017-10-24T15:47:42.739Z,14.80
2017-10-24T15:50:10.214Z,14.80
2017-10-24T15:52:37.689Z,14.80
2017-10-24T15:55:05.157Z,14.80
2017-10-24T15:57:32.636Z,14.80
2017-10-24T16:00:00.887Z,14.80
2017-10-24T16:02:28.405Z,14.70
2017-10-24T16:04:55.910Z,14.70
2017-10-24T16:07:23.387Z,14.70
2017-10-24T16:09:51.633Z,14.70
2017-10-24T16:12:19.192Z,14.70
2017-10-24T16:14:46.672Z,14.70
2017-10-24T16:17:14.914Z,14.80
2017-10-24T16:19:42.524Z,14.70
2017-10-24T16:22:09.990Z,14.80
2017-10-24T16:24:37.458Z,14.70
2017-10-24T16:27:04.927Z,14.70
2017-10-24T16:29:32.416Z,14.70
2017-10-24T16:31:59.877Z,14.70
2017-10-24T16:34:28.120Z,14.70
2017-10-24T16:36:55.599Z,14.60
2017-10-24T16:39:23.172Z,14.60
2017-10-24T16:41:51.435Z,14.50
2017-10-24T16:44:18.916Z,14.50
2017-10-24T16:46:47.165Z,14.50
2017-10-24T16:49:14.661Z,14.50
2017-10-24T16:51:42.184Z,14.60
2017-10-24T16:54:09.739Z,14.60
2017-10-24T16:56:37.222Z,14.50
2017-10-24T16:59:05.478Z,14.60
2017-10-24T17:01:32.953Z,14.50
2017-10-24T17:04:01.247Z,14.60
2017-10-24T17:06:28.830Z,14.60
2017-10-24T17:08:56.301Z,14.60
2017-10-24T17:11:23.794Z,14.60
2017-10-24T17:13:52.057Z,14.50
2017-10-24T17:16:19.627Z,14.50
2017-10-24T17:18:47.897Z,14.40
2017-10-24T17:21:16.150Z,14.50
2017-10-24T17:23:43.700Z,14.40
2017-10-24T17:26:11.279Z,14.50
2017-10-24T17:28:38.748Z,14.40
2017-10-24T17:31:07.012Z,14.40
2017-10-24T17:33:34.515Z,14.40
2017-10-24T17:36:02.005Z,14.40
2017-10-24T17:38:29.482Z,14.50
2017-10-24T17:40:56.949Z,14.40
2017-10-24T17:43:24.430Z,14.30
2017-10-24T17:45:51.912Z,14.30
2017-10-24T17:48:19.393Z,14.20
2017-10-24T17:50:46.881Z,14.20
2017-10-24T17:53:15.113Z,14.30
2017-10-24T17:55:42.602Z,14.30
2017-10-24T17:58:10.065Z,14.30
2017-10-24T18:00:37.547Z,14.40
2017-10-24T18:03:05.039Z,14.20
2017-10-24T18:05:32.510Z,14.10
2017-10-24T18:07:59.978Z,14.10
2017-10-24T18:10:27.542Z,14.20
2017-10-24T18:12:55.065Z,14.30
2017-10-24T18:15:22.564Z,14.30
2017-10-24T18:17:50.127Z,14.30
2017-10-24T18:20:17.620Z,14.40
2017-10-24T18:22:45.088Z,14.40
2017-10-24T18:25:12.645Z,14.30
2017-10-24T18:27:40.110Z,14.30
2017-10-24T18:30:07.700Z,14.40
2017-10-24T18:32:35.165Z,14.40
2017-10-24T18:35:03.409Z,14.30
2017-10-24T18:37:31.026Z,14.20
2017-10-24T18:39:58.527Z,14.30
2017-10-24T18:42:26.048Z,14.40
2017-10-24T18:44:53.523Z,14.40
2017-10-24T18:47:20.999Z,14.40
2017-10-24T18:49:48.502Z,14.50
2017-10-24T18:52:15.998Z,14.50
2017-10-24T18:54:43.475Z,14.40
2017-10-24T18:57:10.943Z,14.40
2017-10-24T18:59:38.412Z,14.40
2017-10-24T19:02:05.882Z,14.30
2017-10-24T19:04:36.256Z,14.40
2017-10-24T19:07:03.794Z,14.30
2017-10-24T19:09:31.263Z,14.40
2017-10-24T19:11:58.733Z,14.30
2017-10-24T19:14:26.199Z,14.30
2017-10-24T19:16:53.674Z,14.30
2017-10-24T19:19:21.191Z,14.30
2017-10-24T19:21:48.668Z,14.40
2017-10-24T19:24:16.117Z,14.40
2017-10-24T19:26:43.589Z,14.30
2017-10-24T19:29:11.063Z,14.30
2017-10-24T19:31:38.624Z,14.30
2017-10-24T19:34:06.090Z,14.20
2017-10-24T19:36:33.588Z,14.30
2017-10-24T19:39:01.057Z,14.30
2017-10-24T19:41:28.543Z,14.30
2017-10-24T19:43:56.115Z,14.40
2017-10-24T19:46:23.576Z,14.40
2017-10-24T19:48:51.283Z,14.30
2017-10-24T19:51:18.791Z,14.40
2017-10-24T19:53:46.276Z,14.40
2017-10-24T19:56:13.759Z,14.30
2017-10-24T19:58:41.230Z,14.40
2017-10-24T20:01:08.709Z,14.40
2017-10-24T20:03:36.264Z,14.40
2017-10-24T20:06:03.859Z,14.40
2017-10-24T20:08:32.124Z,14.40
2017-10-24T20:11:00.384Z,14.40
2017-10-24T20:13:27.858Z,14.30
2017-10-24T20:15:56.094Z,14.40
2017-10-24T20:18:23.563Z,14.40
2017-10-24T20:20:51.037Z,14.40
2017-10-24T20:23:18.586Z,14.40
2017-10-24T20:25:46.097Z,14.40
2017-10-24T20:28:13.593Z,14.40
2017-10-24T20:30:41.158Z,14.40
2017-10-24T20:33:08.725Z,14.40
2017-10-24T20:35:36.203Z,14.50
2017-10-24T20:38:04.470Z,14.50
2017-10-24T20:40:32.708Z,14.40
2017-10-24T20:43:00.187Z,14.40
2017-10-24T20:45:27.652Z,14.40
2017-10-24T20:47:55.932Z,14.40
2017-10-24T20:50:24.184Z,14.40
2017-10-24T20:52:51.665Z,14.40
2017-10-24T20:55:19.885Z,14.40
2017-10-24T20:57:47.363Z,14.30
2017-10-24T21:00:14.838Z,14.30
2017-10-24T21:02:42.406Z,14.40
2017-10-24T21:05:10.638Z,14.40
2017-10-24T21:07:38.101Z,14.40
2017-10-24T21:10:05.558Z,14.40
2017-10-24T21:12:33.047Z,14.40
2017-10-24T21:15:01.323Z,14.40
2017-10-24T21:17:28.870Z,14.40
2017-10-24T21:19:56.344Z,14.40
2017-10-24T21:22:24.611Z,14.50
2017-10-24T21:24:52.094Z,14.50
2017-10-24T21:27:20.334Z,14.30
2017-10-24T21:29:48.771Z,14.30
2017-10-24T21:32:16.233Z,14.30
2017-10-24T21:34:43.703Z,14.40
2017-10-24T21:37:11.183Z,14.50
2017-10-24T21:39:38.663Z,14.40
2017-10-24T21:42:07.080Z,14.30
2017-10-24T21:44:34.597Z,14.30
2017-10-24T21:47:02.828Z,14.40
2017-10-24T21:49:30.326Z,14.40
2017-10-24T21:51:58.590Z,14.40
2017-10-24T21:54:26.090Z,14.40
2017-10-24T21:56:53.718Z,14.40
2017-10-24T21:59:21.955Z,14.30
2017-10-24T22:01:49.424Z,14.30
2017-10-24T22:04:16.951Z,14.30
2017-10-24T22:06:44.479Z,14.40
2017-10-24T22:09:12.714Z,14.30
2017-10-24T22:11:40.181Z,14.30
2017-10-24T22:14:07.742Z,14.30
2017-10-24T22:16:35.219Z,14.30
2017-10-24T22:19:03.479Z,14.30
2017-10-24T22:21:30.958Z,14.20
2017-10-24T22:23:59.196Z,14.30
2017-10-24T22:26:26.823Z,14.20
2017-10-24T22:28:54.285Z,14.30
2017-10-24T22:31:21.797Z,14.20
2017-10-24T22:33:50.115Z,14.20
2017-10-24T22:36:17.609Z,14.10
2017-10-24T22:38:45.203Z,14.20
2017-10-24T22:41:13.465Z,14.30
2017-10-24T22:43:41.710Z,14.30
2017-10-24T22:46:09.192Z,14.30
2017-10-24T22:48:36.742Z,14.40
2017-10-24T22:51:04.297Z,14.40
2017-10-24T22:53:31.777Z,14.40
2017-10-24T22:56:00.001Z,14.30
2017-10-24T22:58:27.497Z,14.30
2017-10-24T23:00:54.981Z,14.20
2017-10-24T23:03:22.510Z,14.20
2017-10-24T23:05:50.073Z,14.20
2017-10-24T23:08:18.300Z,14.10
2017-10-24T23:10:45.801Z,14.10
2017-10-24T23:13:14.053Z,14.00
2017-10-24T23:15:41.526Z,14.00
2017-10-24T23:18:08.997Z,14.00
2017-10-24T23:20:37.263Z,14.10
2017-10-24T23:23:04.741Z,14.10
2017-10-24T23:25:32.971Z,14.20
2017-10-24T23:28:00.436Z,14.20
2017-10-24T23:30:27.909Z,14.30
2017-10-24T23:32:55.373Z,14.30
2017-10-24T23:35:23.596Z,14.40
2017-10-24T23:37:51.055Z,14.30
2017-10-24T23:40:18.538Z,14.40
2017-10-24T23:42:46.005Z,14.40
2017-10-24T23:45:13.570Z,14.30
2017-10-24T23:47:41.038Z,14.20
2017-10-24T23:50:09.311Z,14.10
2017-10-24T23:52:37.537Z,14.00
2017-10-24T23:55:05.026Z,14.00
2017-10-24T23:57:32.501Z,14.00
2017-10-24T23:59:59.961Z,14.00
